sensor_id;sensor_type;location;lat;lon;timestamp;temperature;humidity
43673;DHT22;41723;49.326;8.430;2022-08-19T00:01:12;21.90;97.80
43673;DHT22;41723;49.326;8.430;2022-08-19T00:03:38;21.90;97.90
43673;DHT22;41723;49.326;8.430;2022-08-19T00:06:04;21.90;97.80
43673;DHT22;41723;49.326;8.430;2022-08-19T00:08:30;21.90;97.70
43673;DHT22;41723;49.326;8.430;2022-08-19T00:10:56;21.90;97.80
43673;DHT22;41723;49.326;8.430;2022-08-19T00:13:22;21.90;97.90
43673;DHT22;41723;49.326;8.430;2022-08-19T00:15:48;21.90;97.80
43673;DHT22;41723;49.326;8.430;2022-08-19T00:18:13;21.80;97.90
43673;DHT22;41723;49.326;8.430;2022-08-19T00:20:39;21.90;97.90
43673;DHT22;41723;49.326;8.430;2022-08-19T00:23:06;21.90;97.90
43673;DHT22;41723;49.326;8.430;2022-08-19T00:25:32;21.90;97.90
43673;DHT22;41723;49.326;8.430;2022-08-19T00:27:58;21.90;97.90
43673;DHT22;41723;49.326;8.430;2022-08-19T00:30:24;21.90;97.90
43673;DHT22;41723;49.326;8.430;2022-08-19T00:32:52;21.80;98.00
43673;DHT22;41723;49.326;8.430;2022-08-19T00:35:20;21.80;98.00
43673;DHT22;41723;49.326;8.430;2022-08-19T00:37:47;21.80;98.00
43673;DHT22;41723;49.326;8.430;2022-08-19T00:40:12;21.90;98.00
43673;DHT22;41723;49.326;8.430;2022-08-19T00:42:39;21.80;98.00
43673;DHT22;41723;49.326;8.430;2022-08-19T00:45:08;21.80;98.10
43673;DHT22;41723;49.326;8.430;2022-08-19T00:47:34;21.80;98.10
43673;DHT22;41723;49.326;8.430;2022-08-19T00:50:00;21.80;98.10
43673;DHT22;41723;49.326;8.430;2022-08-19T00:52:27;21.80;98.30
43673;DHT22;41723;49.326;8.430;2022-08-19T00:54:57;21.70;98.20
43673;DHT22;41723;49.326;8.430;2022-08-19T00:57:27;21.70;98.20
43673;DHT22;41723;49.326;8.430;2022-08-19T00:59:54;21.70;98.20
43673;DHT22;41723;49.326;8.430;2022-08-19T01:02:20;21.80;98.20
43673;DHT22;41723;49.326;8.430;2022-08-19T01:04:46;21.80;98.10
43673;DHT22;41723;49.326;8.430;2022-08-19T01:07:12;21.80;98.10
43673;DHT22;41723;49.326;8.430;2022-08-19T01:09:38;21.70;98.20
43673;DHT22;41723;49.326;8.430;2022-08-19T01:12:03;21.70;98.30
43673;DHT22;41723;49.326;8.430;2022-08-19T01:14:29;21.60;98.30
43673;DHT22;41723;49.326;8.430;2022-08-19T01:16:55;21.60;98.40
43673;DHT22;41723;49.326;8.430;2022-08-19T01:19:34;21.60;98.50
43673;DHT22;41723;49.326;8.430;2022-08-19T01:22:08;21.60;98.50
43673;DHT22;41723;49.326;8.430;2022-08-19T01:24:36;21.50;98.50
43673;DHT22;41723;49.326;8.430;2022-08-19T01:27:03;21.60;98.50
43673;DHT22;41723;49.326;8.430;2022-08-19T01:29:29;21.60;98.50
43673;DHT22;41723;49.326;8.430;2022-08-19T01:31:55;21.60;98.50
43673;DHT22;41723;49.326;8.430;2022-08-19T01:34:20;21.60;98.50
43673;DHT22;41723;49.326;8.430;2022-08-19T01:36:47;21.60;98.60
43673;DHT22;41723;49.326;8.430;2022-08-19T01:39:14;21.50;98.60
43673;DHT22;41723;49.326;8.430;2022-08-19T01:41:40;21.50;98.60
43673;DHT22;41723;49.326;8.430;2022-08-19T01:44:07;21.60;98.60
43673;DHT22;41723;49.326;8.430;2022-08-19T01:46:33;21.50;98.60
43673;DHT22;41723;49.326;8.430;2022-08-19T01:48:59;21.60;98.50
43673;DHT22;41723;49.326;8.430;2022-08-19T01:51:25;21.60;98.50
43673;DHT22;41723;49.326;8.430;2022-08-19T01:53:51;21.60;98.50
43673;DHT22;41723;49.326;8.430;2022-08-19T01:56:17;21.60;98.50
43673;DHT22;41723;49.326;8.430;2022-08-19T01:58:51;21.70;98.40
43673;DHT22;41723;49.326;8.430;2022-08-19T02:01:19;21.70;98.40
43673;DHT22;41723;49.326;8.430;2022-08-19T02:03:44;21.70;98.30
43673;DHT22;41723;49.326;8.430;2022-08-19T02:06:11;21.60;98.50
43673;DHT22;41723;49.326;8.430;2022-08-19T02:08:38;21.60;98.40
43673;DHT22;41723;49.326;8.430;2022-08-19T02:11:04;21.60;98.30
43673;DHT22;41723;49.326;8.430;2022-08-19T02:13:30;21.70;98.40
43673;DHT22;41723;49.326;8.430;2022-08-19T02:15:56;21.70;98.40
43673;DHT22;41723;49.326;8.430;2022-08-19T02:18:23;21.70;98.40
43673;DHT22;41723;49.326;8.430;2022-08-19T02:20:48;21.70;98.30
43673;DHT22;41723;49.326;8.430;2022-08-19T02:23:15;21.60;98.40
43673;DHT22;41723;49.326;8.430;2022-08-19T02:25:42;21.60;98.50
43673;DHT22;41723;49.326;8.430;2022-08-19T02:28:08;21.60;98.40
43673;DHT22;41723;49.326;8.430;2022-08-19T02:30:33;21.70;98.30
43673;DHT22;41723;49.326;8.430;2022-08-19T02:32:59;21.80;98.20
43673;DHT22;41723;49.326;8.430;2022-08-19T02:35:25;21.80;98.20
43673;DHT22;41723;49.326;8.430;2022-08-19T02:37:50;21.90;98.10
43673;DHT22;41723;49.326;8.430;2022-08-19T02:40:35;21.80;98.30
43673;DHT22;41723;49.326;8.430;2022-08-19T02:43:04;21.70;98.40
43673;DHT22;41723;49.326;8.430;2022-08-19T02:45:32;21.80;98.40
43673;DHT22;41723;49.326;8.430;2022-08-19T02:47:58;21.80;98.30
43673;DHT22;41723;49.326;8.430;2022-08-19T02:50:23;21.80;98.30
43673;DHT22;41723;49.326;8.430;2022-08-19T02:52:49;21.70;98.40
43673;DHT22;41723;49.326;8.430;2022-08-19T02:55:15;21.80;98.40
43673;DHT22;41723;49.326;8.430;2022-08-19T02:57:40;21.80;98.40
43673;DHT22;41723;49.326;8.430;2022-08-19T03:00:07;21.70;98.40
43673;DHT22;41723;49.326;8.430;2022-08-19T03:02:36;21.70;98.40
43673;DHT22;41723;49.326;8.430;2022-08-19T03:05:02;21.70;98.50
43673;DHT22;41723;49.326;8.430;2022-08-19T03:07:28;21.70;98.50
43673;DHT22;41723;49.326;8.430;2022-08-19T03:09:54;21.80;98.40
43673;DHT22;41723;49.326;8.430;2022-08-19T03:12:19;21.80;98.40
43673;DHT22;41723;49.326;8.430;2022-08-19T03:14:45;21.70;98.40
43673;DHT22;41723;49.326;8.430;2022-08-19T03:17:11;21.60;98.60
43673;DHT22;41723;49.326;8.430;2022-08-19T03:19:37;21.50;98.80
43673;DHT22;41723;49.326;8.430;2022-08-19T03:22:03;21.40;98.90
43673;DHT22;41723;49.326;8.430;2022-08-19T03:24:30;21.40;99.00
43673;DHT22;41723;49.326;8.430;2022-08-19T03:26:56;21.40;99.00
43673;DHT22;41723;49.326;8.430;2022-08-19T03:29:22;21.40;99.10
43673;DHT22;41723;49.326;8.430;2022-08-19T03:31:48;21.30;99.10
43673;DHT22;41723;49.326;8.430;2022-08-19T03:34:17;21.30;99.20
43673;DHT22;41723;49.326;8.430;2022-08-19T03:36:43;21.30;99.20
43673;DHT22;41723;49.326;8.430;2022-08-19T03:39:09;21.20;99.20
43673;DHT22;41723;49.326;8.430;2022-08-19T03:41:36;21.20;99.30
43673;DHT22;41723;49.326;8.430;2022-08-19T03:44:02;21.20;99.30
43673;DHT22;41723;49.326;8.430;2022-08-19T03:46:31;21.30;99.30
43673;DHT22;41723;49.326;8.430;2022-08-19T03:48:57;21.20;99.30
43673;DHT22;41723;49.326;8.430;2022-08-19T03:51:25;21.20;99.20
43673;DHT22;41723;49.326;8.430;2022-08-19T03:53:52;21.30;99.10
43673;DHT22;41723;49.326;8.430;2022-08-19T03:56:17;21.20;99.20
43673;DHT22;41723;49.326;8.430;2022-08-19T03:58:43;21.20;99.20
43673;DHT22;41723;49.326;8.430;2022-08-19T04:01:10;21.20;99.30
43673;DHT22;41723;49.326;8.430;2022-08-19T04:03:36;21.20;99.30
43673;DHT22;41723;49.326;8.430;2022-08-19T04:06:12;21.20;99.30
43673;DHT22;41723;49.326;8.430;2022-08-19T04:08:39;21.20;99.30
43673;DHT22;41723;49.326;8.430;2022-08-19T04:11:08;21.20;99.30
43673;DHT22;41723;49.326;8.430;2022-08-19T04:13:34;21.10;99.30
43673;DHT22;41723;49.326;8.430;2022-08-19T04:16:00;21.10;99.40
43673;DHT22;41723;49.326;8.430;2022-08-19T04:18:25;21.10;99.40
43673;DHT22;41723;49.326;8.430;2022-08-19T04:20:51;21.10;99.40
43673;DHT22;41723;49.326;8.430;2022-08-19T04:23:17;21.10;99.40
43673;DHT22;41723;49.326;8.430;2022-08-19T04:25:44;21.10;99.50
43673;DHT22;41723;49.326;8.430;2022-08-19T04:28:11;21.20;99.30
43673;DHT22;41723;49.326;8.430;2022-08-19T04:30:47;21.20;99.20
43673;DHT22;41723;49.326;8.430;2022-08-19T04:33:14;21.30;99.20
43673;DHT22;41723;49.326;8.430;2022-08-19T04:35:46;21.30;99.10
43673;DHT22;41723;49.326;8.430;2022-08-19T04:38:14;21.40;99.10
43673;DHT22;41723;49.326;8.430;2022-08-19T04:40:40;21.40;98.80
43673;DHT22;41723;49.326;8.430;2022-08-19T04:43:25;21.40;98.70
43673;DHT22;41723;49.326;8.430;2022-08-19T04:45:51;21.40;98.70
43673;DHT22;41723;49.326;8.430;2022-08-19T04:48:17;21.30;98.80
43673;DHT22;41723;49.326;8.430;2022-08-19T04:51:12;21.40;98.80
43673;DHT22;41723;49.326;8.430;2022-08-19T04:53:39;21.40;98.70
43673;DHT22;41723;49.326;8.430;2022-08-19T04:56:09;21.50;98.60
43673;DHT22;41723;49.326;8.430;2022-08-19T04:58:43;21.60;98.40
43673;DHT22;41723;49.326;8.430;2022-08-19T05:01:22;21.60;98.30
43673;DHT22;41723;49.326;8.430;2022-08-19T05:03:54;21.60;98.20
43673;DHT22;41723;49.326;8.430;2022-08-19T05:06:31;21.50;98.30
43673;DHT22;41723;49.326;8.430;2022-08-19T05:08:58;21.50;98.40
43673;DHT22;41723;49.326;8.430;2022-08-19T05:11:25;21.50;98.30
43673;DHT22;41723;49.326;8.430;2022-08-19T05:13:51;21.50;98.30
43673;DHT22;41723;49.326;8.430;2022-08-19T05:16:18;21.60;98.20
43673;DHT22;41723;49.326;8.430;2022-08-19T05:18:44;21.70;98.20
43673;DHT22;41723;49.326;8.430;2022-08-19T05:21:33;21.60;98.20
43673;DHT22;41723;49.326;8.430;2022-08-19T05:24:18;21.60;98.30
43673;DHT22;41723;49.326;8.430;2022-08-19T05:26:44;21.50;98.40
43673;DHT22;41723;49.326;8.430;2022-08-19T05:29:12;21.50;98.50
43673;DHT22;41723;49.326;8.430;2022-08-19T05:31:40;21.50;98.40
43673;DHT22;41723;49.326;8.430;2022-08-19T05:34:06;21.50;98.40
43673;DHT22;41723;49.326;8.430;2022-08-19T05:36:34;21.50;98.50
43673;DHT22;41723;49.326;8.430;2022-08-19T05:39:00;21.50;98.40
43673;DHT22;41723;49.326;8.430;2022-08-19T05:41:25;21.50;98.50
43673;DHT22;41723;49.326;8.430;2022-08-19T05:43:55;21.50;98.50
43673;DHT22;41723;49.326;8.430;2022-08-19T05:46:21;21.50;98.50
43673;DHT22;41723;49.326;8.430;2022-08-19T05:48:47;21.50;98.50
43673;DHT22;41723;49.326;8.430;2022-08-19T05:51:13;21.70;98.40
43673;DHT22;41723;49.326;8.430;2022-08-19T05:53:39;21.70;98.40
43673;DHT22;41723;49.326;8.430;2022-08-19T05:56:10;21.80;98.20
43673;DHT22;41723;49.326;8.430;2022-08-19T05:58:36;21.80;98.20
43673;DHT22;41723;49.326;8.430;2022-08-19T06:01:02;21.70;98.30
43673;DHT22;41723;49.326;8.430;2022-08-19T06:03:31;21.70;98.30
43673;DHT22;41723;49.326;8.430;2022-08-19T06:05:58;21.70;98.30
43673;DHT22;41723;49.326;8.430;2022-08-19T06:08:25;21.70;98.20
43673;DHT22;41723;49.326;8.430;2022-08-19T06:10:50;21.70;98.20
43673;DHT22;41723;49.326;8.430;2022-08-19T06:13:16;21.70;98.20
43673;DHT22;41723;49.326;8.430;2022-08-19T06:15:42;21.70;98.40
43673;DHT22;41723;49.326;8.430;2022-08-19T06:18:09;21.70;98.30
43673;DHT22;41723;49.326;8.430;2022-08-19T06:20:35;21.70;98.30
43673;DHT22;41723;49.326;8.430;2022-08-19T06:23:00;21.60;98.20
43673;DHT22;41723;49.326;8.430;2022-08-19T06:25:26;21.60;98.20
43673;DHT22;41723;49.326;8.430;2022-08-19T06:27:51;21.70;98.30
43673;DHT22;41723;49.326;8.430;2022-08-19T06:30:18;21.60;98.30
43673;DHT22;41723;49.326;8.430;2022-08-19T06:32:43;21.70;98.30
43673;DHT22;41723;49.326;8.430;2022-08-19T06:35:09;21.70;98.40
43673;DHT22;41723;49.326;8.430;2022-08-19T06:37:35;21.70;98.40
43673;DHT22;41723;49.326;8.430;2022-08-19T06:40:01;21.80;98.40
43673;DHT22;41723;49.326;8.430;2022-08-19T06:42:27;21.80;98.30
43673;DHT22;41723;49.326;8.430;2022-08-19T06:44:52;21.80;98.20
43673;DHT22;41723;49.326;8.430;2022-08-19T06:47:19;21.90;98.10
43673;DHT22;41723;49.326;8.430;2022-08-19T06:49:44;22.00;98.00
43673;DHT22;41723;49.326;8.430;2022-08-19T06:52:10;22.10;98.00
43673;DHT22;41723;49.326;8.430;2022-08-19T06:54:37;22.10;97.90
43673;DHT22;41723;49.326;8.430;2022-08-19T06:57:04;22.10;97.90
43673;DHT22;41723;49.326;8.430;2022-08-19T06:59:31;22.10;97.90
43673;DHT22;41723;49.326;8.430;2022-08-19T07:01:59;22.10;97.80
43673;DHT22;41723;49.326;8.430;2022-08-19T07:04:26;22.10;97.80
43673;DHT22;41723;49.326;8.430;2022-08-19T07:06:59;22.20;97.80
43673;DHT22;41723;49.326;8.430;2022-08-19T07:09:25;22.20;97.80
43673;DHT22;41723;49.326;8.430;2022-08-19T07:11:52;22.30;98.00
43673;DHT22;41723;49.326;8.430;2022-08-19T07:14:18;22.40;97.80
43673;DHT22;41723;49.326;8.430;2022-08-19T07:16:45;22.50;97.90
43673;DHT22;41723;49.326;8.430;2022-08-19T07:19:11;22.60;97.50
43673;DHT22;41723;49.326;8.430;2022-08-19T07:21:37;22.60;97.70
43673;DHT22;41723;49.326;8.430;2022-08-19T07:24:03;22.60;97.80
43673;DHT22;41723;49.326;8.430;2022-08-19T07:26:30;22.60;97.40
43673;DHT22;41723;49.326;8.430;2022-08-19T07:28:57;22.70;97.60
43673;DHT22;41723;49.326;8.430;2022-08-19T07:31:24;22.60;97.40
43673;DHT22;41723;49.326;8.430;2022-08-19T07:33:51;22.50;97.60
43673;DHT22;41723;49.326;8.430;2022-08-19T07:36:18;22.50;97.70
43673;DHT22;41723;49.326;8.430;2022-08-19T07:38:45;22.60;97.50
43673;DHT22;41723;49.326;8.430;2022-08-19T07:41:13;22.70;97.40
43673;DHT22;41723;49.326;8.430;2022-08-19T07:43:39;22.70;97.50
43673;DHT22;41723;49.326;8.430;2022-08-19T07:46:05;22.80;97.40
43673;DHT22;41723;49.326;8.430;2022-08-19T07:48:31;22.70;97.20
43673;DHT22;41723;49.326;8.430;2022-08-19T07:50:58;22.70;97.40
43673;DHT22;41723;49.326;8.430;2022-08-19T07:53:28;22.70;97.30
43673;DHT22;41723;49.326;8.430;2022-08-19T07:55:53;22.70;97.40
43673;DHT22;41723;49.326;8.430;2022-08-19T07:58:20;22.70;97.40
43673;DHT22;41723;49.326;8.430;2022-08-19T08:00:47;22.70;97.50
43673;DHT22;41723;49.326;8.430;2022-08-19T08:03:13;22.70;97.50
43673;DHT22;41723;49.326;8.430;2022-08-19T08:05:40;22.80;97.40
43673;DHT22;41723;49.326;8.430;2022-08-19T08:08:24;23.00;97.50
43673;DHT22;41723;49.326;8.430;2022-08-19T08:11:02;23.20;97.40
43673;DHT22;41723;49.326;8.430;2022-08-19T08:13:28;23.20;96.90
43673;DHT22;41723;49.326;8.430;2022-08-19T08:15:54;23.40;96.80
43673;DHT22;41723;49.326;8.430;2022-08-19T08:18:19;23.60;96.70
43673;DHT22;41723;49.326;8.430;2022-08-19T08:20:46;23.80;96.60
43673;DHT22;41723;49.326;8.430;2022-08-19T08:23:11;24.00;95.90
43673;DHT22;41723;49.326;8.430;2022-08-19T08:25:55;24.00;95.50
43673;DHT22;41723;49.326;8.430;2022-08-19T08:28:21;24.20;95.50
43673;DHT22;41723;49.326;8.430;2022-08-19T08:30:47;24.10;95.20
43673;DHT22;41723;49.326;8.430;2022-08-19T08:33:14;24.10;95.30
43673;DHT22;41723;49.326;8.430;2022-08-19T08:35:44;24.20;95.40
43673;DHT22;41723;49.326;8.430;2022-08-19T08:38:11;24.20;95.30
43673;DHT22;41723;49.326;8.430;2022-08-19T08:40:47;24.10;95.10
43673;DHT22;41723;49.326;8.430;2022-08-19T08:43:28;24.10;95.40
43673;DHT22;41723;49.326;8.430;2022-08-19T08:48:31;24.10;94.80
43673;DHT22;41723;49.326;8.430;2022-08-19T08:50:59;24.10;94.80
43673;DHT22;41723;49.326;8.430;2022-08-19T08:53:26;24.20;94.90
43673;DHT22;41723;49.326;8.430;2022-08-19T08:55:52;24.40;94.60
43673;DHT22;41723;49.326;8.430;2022-08-19T08:58:29;24.50;94.30
43673;DHT22;41723;49.326;8.430;2022-08-19T09:00:56;24.50;94.40
43673;DHT22;41723;49.326;8.430;2022-08-19T09:03:24;24.60;94.30
43673;DHT22;41723;49.326;8.430;2022-08-19T09:08:49;24.60;93.70
43673;DHT22;41723;49.326;8.430;2022-08-19T09:12:03;24.40;93.70
43673;DHT22;41723;49.326;8.430;2022-08-19T09:14:10;24.40;93.90
43673;DHT22;41723;49.326;8.430;2022-08-19T09:16:39;24.60;93.90
43673;DHT22;41723;49.326;8.430;2022-08-19T09:19:07;24.80;93.50
43673;DHT22;41723;49.326;8.430;2022-08-19T09:21:33;24.90;93.50
43673;DHT22;41723;49.326;8.430;2022-08-19T09:24:03;24.90;93.40
43673;DHT22;41723;49.326;8.430;2022-08-19T09:26:29;25.10;93.30
43673;DHT22;41723;49.326;8.430;2022-08-19T09:28:57;25.00;93.40
43673;DHT22;41723;49.326;8.430;2022-08-19T09:31:24;25.00;92.90
43673;DHT22;41723;49.326;8.430;2022-08-19T09:33:51;25.00;93.00
43673;DHT22;41723;49.326;8.430;2022-08-19T09:36:17;25.10;93.30
43673;DHT22;41723;49.326;8.430;2022-08-19T09:38:43;25.10;93.20
43673;DHT22;41723;49.326;8.430;2022-08-19T09:41:11;25.10;93.20
43673;DHT22;41723;49.326;8.430;2022-08-19T09:43:39;25.00;93.10
43673;DHT22;41723;49.326;8.430;2022-08-19T09:46:05;24.90;92.80
43673;DHT22;41723;49.326;8.430;2022-08-19T09:48:32;24.70;92.70
43673;DHT22;41723;49.326;8.430;2022-08-19T09:53:54;24.80;92.90
43673;DHT22;41723;49.326;8.430;2022-08-19T09:56:21;25.10;92.80
43673;DHT22;41723;49.326;8.430;2022-08-19T09:58:47;25.10;92.90
43673;DHT22;41723;49.326;8.430;2022-08-19T10:01:18;25.20;93.00
43673;DHT22;41723;49.326;8.430;2022-08-19T10:03:46;25.30;92.70
43673;DHT22;41723;49.326;8.430;2022-08-19T10:06:12;25.20;92.60
43673;DHT22;41723;49.326;8.430;2022-08-19T10:08:38;25.20;92.60
43673;DHT22;41723;49.326;8.430;2022-08-19T10:11:05;25.10;92.80
43673;DHT22;41723;49.326;8.430;2022-08-19T10:13:31;25.20;92.60
43673;DHT22;41723;49.326;8.430;2022-08-19T10:16:02;25.20;92.90
43673;DHT22;41723;49.326;8.430;2022-08-19T10:18:29;25.10;93.10
43673;DHT22;41723;49.326;8.430;2022-08-19T10:21:02;25.10;92.80
43673;DHT22;41723;49.326;8.430;2022-08-19T10:23:28;25.30;92.80
43673;DHT22;41723;49.326;8.430;2022-08-19T10:25:59;25.40;92.40
43673;DHT22;41723;49.326;8.430;2022-08-19T10:28:24;25.40;92.50
43673;DHT22;41723;49.326;8.430;2022-08-19T10:30:50;25.30;92.30
43673;DHT22;41723;49.326;8.430;2022-08-19T10:33:15;25.50;92.20
43673;DHT22;41723;49.326;8.430;2022-08-19T10:35:41;25.60;92.30
43673;DHT22;41723;49.326;8.430;2022-08-19T10:38:06;25.60;91.90
43673;DHT22;41723;49.326;8.430;2022-08-19T10:40:32;25.50;91.50
43673;DHT22;41723;49.326;8.430;2022-08-19T10:42:58;25.50;91.40
43673;DHT22;41723;49.326;8.430;2022-08-19T10:45:23;25.60;91.40
43673;DHT22;41723;49.326;8.430;2022-08-19T10:47:52;25.60;91.00
43673;DHT22;41723;49.326;8.430;2022-08-19T10:50:17;25.60;91.50
43673;DHT22;41723;49.326;8.430;2022-08-19T10:53:05;25.80;91.40
43673;DHT22;41723;49.326;8.430;2022-08-19T10:55:33;25.80;90.90
43673;DHT22;41723;49.326;8.430;2022-08-19T10:58:19;25.90;91.30
43673;DHT22;41723;49.326;8.430;2022-08-19T11:00:56;25.90;90.10
43673;DHT22;41723;49.326;8.430;2022-08-19T11:03:22;25.80;88.70
43673;DHT22;41723;49.326;8.430;2022-08-19T11:06:00;26.00;89.20
43673;DHT22;41723;49.326;8.430;2022-08-19T11:08:26;26.10;89.30
43673;DHT22;41723;49.326;8.430;2022-08-19T11:10:53;26.20;90.00
43673;DHT22;41723;49.326;8.430;2022-08-19T11:13:22;26.10;90.10
43673;DHT22;41723;49.326;8.430;2022-08-19T11:15:55;26.20;89.80
43673;DHT22;41723;49.326;8.430;2022-08-19T11:18:21;26.20;89.70
43673;DHT22;41723;49.326;8.430;2022-08-19T11:20:47;26.10;88.70
43673;DHT22;41723;49.326;8.430;2022-08-19T11:23:12;26.20;89.50
43673;DHT22;41723;49.326;8.430;2022-08-19T11:25:38;26.40;89.30
43673;DHT22;41723;49.326;8.430;2022-08-19T11:28:04;26.60;88.10
43673;DHT22;41723;49.326;8.430;2022-08-19T11:30:30;26.90;87.90
43673;DHT22;41723;49.326;8.430;2022-08-19T11:32:55;27.10;87.50
43673;DHT22;41723;49.326;8.430;2022-08-19T11:35:21;27.20;86.80
43673;DHT22;41723;49.326;8.430;2022-08-19T11:37:48;26.90;84.80
43673;DHT22;41723;49.326;8.430;2022-08-19T11:40:14;26.90;83.90
43673;DHT22;41723;49.326;8.430;2022-08-19T11:42:39;27.10;84.00
43673;DHT22;41723;49.326;8.430;2022-08-19T11:45:21;27.30;80.50
43673;DHT22;41723;49.326;8.430;2022-08-19T11:47:47;27.50;79.60
43673;DHT22;41723;49.326;8.430;2022-08-19T11:50:14;27.80;79.90
43673;DHT22;41723;49.326;8.430;2022-08-19T11:52:39;27.90;80.90
43673;DHT22;41723;49.326;8.430;2022-08-19T11:55:05;27.90;78.90
43673;DHT22;41723;49.326;8.430;2022-08-19T11:57:31;27.80;77.90
43673;DHT22;41723;49.326;8.430;2022-08-19T11:59:56;28.00;80.50
43673;DHT22;41723;49.326;8.430;2022-08-19T12:02:22;28.30;76.80
43673;DHT22;41723;49.326;8.430;2022-08-19T12:04:48;28.40;75.90
43673;DHT22;41723;49.326;8.430;2022-08-19T12:07:14;28.50;76.30
43673;DHT22;41723;49.326;8.430;2022-08-19T12:09:40;28.30;76.40
43673;DHT22;41723;49.326;8.430;2022-08-19T12:12:05;28.00;76.80
43673;DHT22;41723;49.326;8.430;2022-08-19T12:14:31;28.10;77.90
43673;DHT22;41723;49.326;8.430;2022-08-19T12:16:57;28.30;77.30
43673;DHT22;41723;49.326;8.430;2022-08-19T12:19:23;28.20;76.90
43673;DHT22;41723;49.326;8.430;2022-08-19T12:21:50;28.20;77.00
43673;DHT22;41723;49.326;8.430;2022-08-19T12:24:16;28.20;76.50
43673;DHT22;41723;49.326;8.430;2022-08-19T12:26:48;28.30;76.70
43673;DHT22;41723;49.326;8.430;2022-08-19T12:29:14;28.40;76.80
43673;DHT22;41723;49.326;8.430;2022-08-19T12:31:40;28.50;76.80
43673;DHT22;41723;49.326;8.430;2022-08-19T12:34:06;28.40;76.90
43673;DHT22;41723;49.326;8.430;2022-08-19T12:36:32;28.20;77.40
43673;DHT22;41723;49.326;8.430;2022-08-19T12:38:58;27.70;77.60
43673;DHT22;41723;49.326;8.430;2022-08-19T12:41:25;27.80;76.60
43673;DHT22;41723;49.326;8.430;2022-08-19T12:43:50;27.90;76.10
43673;DHT22;41723;49.326;8.430;2022-08-19T12:46:16;28.30;76.30
43673;DHT22;41723;49.326;8.430;2022-08-19T12:48:42;28.50;74.80
43673;DHT22;41723;49.326;8.430;2022-08-19T12:51:11;28.40;75.00
43673;DHT22;41723;49.326;8.430;2022-08-19T12:53:37;28.40;75.90
43673;DHT22;41723;49.326;8.430;2022-08-19T12:56:03;28.70;76.10
43673;DHT22;41723;49.326;8.430;2022-08-19T12:58:30;28.50;74.50
43673;DHT22;41723;49.326;8.430;2022-08-19T13:00:55;28.10;75.00
43673;DHT22;41723;49.326;8.430;2022-08-19T13:03:21;27.80;75.40
43673;DHT22;41723;49.326;8.430;2022-08-19T13:05:54;27.70;78.00
43673;DHT22;41723;49.326;8.430;2022-08-19T13:08:20;28.20;75.70
43673;DHT22;41723;49.326;8.430;2022-08-19T13:10:46;28.70;74.70
43673;DHT22;41723;49.326;8.430;2022-08-19T13:13:12;28.90;74.60
43673;DHT22;41723;49.326;8.430;2022-08-19T13:15:38;28.90;72.80
43673;DHT22;41723;49.326;8.430;2022-08-19T13:18:05;28.60;73.00
43673;DHT22;41723;49.326;8.430;2022-08-19T13:20:32;28.60;74.50
43673;DHT22;41723;49.326;8.430;2022-08-19T13:22:57;28.60;73.00
43673;DHT22;41723;49.326;8.430;2022-08-19T13:25:23;28.50;74.10
43673;DHT22;41723;49.326;8.430;2022-08-19T13:27:50;28.50;73.80
43673;DHT22;41723;49.326;8.430;2022-08-19T13:30:17;28.50;72.90
43673;DHT22;41723;49.326;8.430;2022-08-19T13:33:02;28.50;72.80
43673;DHT22;41723;49.326;8.430;2022-08-19T13:38:06;28.90;73.30
43673;DHT22;41723;49.326;8.430;2022-08-19T13:40:31;28.70;73.00
43673;DHT22;41723;49.326;8.430;2022-08-19T13:42:58;28.60;71.70
43673;DHT22;41723;49.326;8.430;2022-08-19T13:45:24;28.60;71.80
43673;DHT22;41723;49.326;8.430;2022-08-19T13:47:52;28.70;72.30
43673;DHT22;41723;49.326;8.430;2022-08-19T13:50:20;28.80;71.90
43673;DHT22;41723;49.326;8.430;2022-08-19T13:52:46;28.70;72.20
43673;DHT22;41723;49.326;8.430;2022-08-19T13:55:13;28.70;72.30
43673;DHT22;41723;49.326;8.430;2022-08-19T13:57:39;28.70;72.60
43673;DHT22;41723;49.326;8.430;2022-08-19T14:00:06;28.70;72.20
43673;DHT22;41723;49.326;8.430;2022-08-19T14:02:33;28.60;73.10
43673;DHT22;41723;49.326;8.430;2022-08-19T14:04:59;28.60;72.40
43673;DHT22;41723;49.326;8.430;2022-08-19T14:07:25;28.70;72.70
43673;DHT22;41723;49.326;8.430;2022-08-19T14:09:50;28.60;72.20
43673;DHT22;41723;49.326;8.430;2022-08-19T14:12:20;28.70;71.60
43673;DHT22;41723;49.326;8.430;2022-08-19T14:14:46;28.60;71.40
43673;DHT22;41723;49.326;8.430;2022-08-19T14:17:11;28.70;71.80
43673;DHT22;41723;49.326;8.430;2022-08-19T14:19:37;28.80;71.50
43673;DHT22;41723;49.326;8.430;2022-08-19T14:22:02;28.80;71.00
43673;DHT22;41723;49.326;8.430;2022-08-19T14:24:28;28.80;70.90
43673;DHT22;41723;49.326;8.430;2022-08-19T14:26:54;28.90;71.20
43673;DHT22;41723;49.326;8.430;2022-08-19T14:29:19;28.70;70.80
43673;DHT22;41723;49.326;8.430;2022-08-19T14:31:45;28.50;71.70
43673;DHT22;41723;49.326;8.430;2022-08-19T14:34:11;28.30;71.80
43673;DHT22;41723;49.326;8.430;2022-08-19T14:36:38;28.30;72.40
43673;DHT22;41723;49.326;8.430;2022-08-19T14:39:04;28.20;72.10
43673;DHT22;41723;49.326;8.430;2022-08-19T14:41:29;28.10;72.50
43673;DHT22;41723;49.326;8.430;2022-08-19T14:43:55;28.20;72.70
43673;DHT22;41723;49.326;8.430;2022-08-19T14:46:22;28.20;72.60
43673;DHT22;41723;49.326;8.430;2022-08-19T14:48:48;28.10;72.60
43673;DHT22;41723;49.326;8.430;2022-08-19T14:51:15;28.20;72.90
43673;DHT22;41723;49.326;8.430;2022-08-19T14:53:41;28.10;72.80
43673;DHT22;41723;49.326;8.430;2022-08-19T14:56:10;28.20;74.40
43673;DHT22;41723;49.326;8.430;2022-08-19T14:58:36;28.30;73.00
43673;DHT22;41723;49.326;8.430;2022-08-19T15:01:02;28.40;74.00
43673;DHT22;41723;49.326;8.430;2022-08-19T15:03:28;28.30;72.30
43673;DHT22;41723;49.326;8.430;2022-08-19T15:05:54;28.30;72.50
43673;DHT22;41723;49.326;8.430;2022-08-19T15:08:22;28.20;73.10
43673;DHT22;41723;49.326;8.430;2022-08-19T15:10:50;28.10;73.00
43673;DHT22;41723;49.326;8.430;2022-08-19T15:13:16;28.10;72.20
43673;DHT22;41723;49.326;8.430;2022-08-19T15:15:41;28.10;72.40
43673;DHT22;41723;49.326;8.430;2022-08-19T15:18:07;28.10;73.00
43673;DHT22;41723;49.326;8.430;2022-08-19T15:20:33;28.10;72.20
43673;DHT22;41723;49.326;8.430;2022-08-19T15:22:58;28.00;73.10
43673;DHT22;41723;49.326;8.430;2022-08-19T15:25:24;28.10;72.70
43673;DHT22;41723;49.326;8.430;2022-08-19T15:27:49;28.10;73.00
43673;DHT22;41723;49.326;8.430;2022-08-19T15:30:19;28.10;72.70
43673;DHT22;41723;49.326;8.430;2022-08-19T15:32:45;28.20;72.80
43673;DHT22;41723;49.326;8.430;2022-08-19T15:35:10;28.10;72.30
43673;DHT22;41723;49.326;8.430;2022-08-19T15:37:36;28.10;72.70
43673;DHT22;41723;49.326;8.430;2022-08-19T15:40:02;28.20;72.70
43673;DHT22;41723;49.326;8.430;2022-08-19T15:42:28;28.10;72.70